Hovedside
METAR-TAF:

METAR-TAF

Lufthavner :

Majuro, Marshalløyene

breddegrad: 07-04N, lengdegrad: 171-17E, høyde over havet: 2 m

Gjeldene værobservasjon

Denne rapporten ble laget for 14 timer og 34 minutter siden, klokken 23:52 UTC
Vind 8 kt fra Øst
Temperatur 30°C
Luftfuktighet 79%
Trykk 1010 hPa
Sikt: 24.1 km
Få skyer i en høyde av 1500 ft
Spredte skyer i en høyde av 5000 ft
Brutte skyer i en høyde av 30000 ft

METAR: PKMJ 172352Z 09008KT 15SM FEW015 SCT050 BKN300 30/26 A2982 RMK LAST

Tid: 02:26 (14:26 UTC)

Varsel

Denne rapporten ble laget for 3 timer og 0 minutter siden, klokken 11:26 UTC
Varsel gyldig fra 18. klokken 12 UTC til 19. klokken 12 UTC
Vind 10 kt fra Øst
Sikt: 10 km
Spredte skyer i en høyde av 1500 ft
Spredte skyer i en høyde av 5000 ft
regnbyger i nærheten

TAF: PKMJ 181126Z 1812/1912 08010KT P6SM VCSH SCT015 SCT050

Værobservasjoner og værvarsel for over 4000 flyplasser (METAR- og TAF-rapporter).

Tilgjengelige stasjoner er representert av de røde og gule prikkene på kartet.

Hold musepekeren over prikken for å se navnet på stasjonen.

Klikk så for å se værobservasjoner og -varsler.

For å forandre kartet kan du klikke på den grønne knappen med svart kryss for å zoome inn, på den grønne knappen med strek for å zoome ut, eller på de grønne pilene for å se tilstøtende kart.


METAR-TAF: